Webcam Meteoipassi more information Webcam Meteoipassi


Pisa torre orologio more information Pisa torre orologio


altri nostri siti meteo:

Pomeziameteo 1Sito sul meteo

Pomeziameteo DashboardSito sul meteo

Caput FrigorisSito sul meteo

BarcellonameteoSito sul meteo

MeteoipassiSito sul meteo

ViterbometeoSito sul meteo

MeteotortoretoSito sul meteo

TortoretometeolidoSito sul meteo

MeteoGonzagaSito sul meteo



Nessuna attenzione particolare richiesta.    Non ci sono allerte meteo

Report METAR

   
LIRQ - Firenze
Dati ricevuti: Dec 3 2020 11:20 pm
Nebbia, Molto nuvoloso  
Nebbia, Molto nuvoloso  
   Vento: Variabile 1.9 km/h
Vento: Variabile 1.9 km/h
Temperatura: 1°C
P.to Rugiada: 1°C
Umidita: 100%
Barometro: 1005 hPa
Nuvole: Molto nuvoloso
Visibilita: 4 km
dettagli cloud: Molto nuvoloso 91.4 m
LIRQ 032220Z VRB01KT 4000 BR BKN003 01/01 Q1005
LIRP - Lucca
Dati ricevuti: Dec 3 2020 11:15 pm
Parzialmente nuvoloso  
Parzialmente nuvoloso  
   Vento: S 9.3 km/h
Vento: S 9.3 km/h
Temperatura: 2°C
Temperatura Vento: -1°C
P.to Rugiada: 2°C
Umidita: 100%
Barometro: 1004 hPa
Nuvole: Parzialmente nuvoloso
Visibilita: 8 km
dettagli cloud: Parzialmente nuvoloso
LIRP 032215Z 15005KT 8000 NSC 02/02 Q1004 NOSIG
LIRP - Livorno
Dati ricevuti: Dec 3 2020 11:15 pm
Parzialmente nuvoloso  
Parzialmente nuvoloso  
   Vento: S 9.3 km/h
Vento: S 9.3 km/h
Temperatura: 2°C
Temperatura Vento: -1°C
P.to Rugiada: 2°C
Umidita: 100%
Barometro: 1004 hPa
Nuvole: Parzialmente nuvoloso
Visibilita: 8 km
dettagli cloud: Parzialmente nuvoloso
LIRP 032215Z 15005KT 8000 NSC 02/02 Q1004 NOSIG
LIMP - Parma
Dati ricevuti: Dec 3 2020 10:50 pm
Nebbia, Parzialmente nuvoloso  
Nebbia, Parzialmente nuvoloso  
   Vento: Variabile 1.9 km/h
Vento: Variabile 1.9 km/h
Temperatura: 1°C
P.to Rugiada: 1°C
Umidita: 100%
Barometro: 1006 hPa
Nuvole: Parzialmente nuvoloso
Visibilita: 2 km
dettagli cloud: Parzialmente nuvoloso
LIMP 032150Z VRB01KT 1500 BR NSC 01/01 Q1006
LIRF - Roma
Dati ricevuti: Dec 3 2020 11:20 pm
Parzialmente nuvoloso  
Parzialmente nuvoloso  
   Vento: Oriente 5.6 km/h
Vento: Oriente 5.6 km/h
Temperatura: 9°C
Temperatura Vento: 8°C
P.to Rugiada: 7°C
Umidita: 87%
Barometro: 1005 hPa
Nuvole: Parzialmente nuvoloso
Visibilita: oltre 10 km
dettagli cloud: Parzialmente nuvoloso 1280.2 m
LIRF 032220Z 09003KT 020V120 9999 SCT042 09/07 Q1005 NOSIG
 

Script sviluppato da  Saratoga-weather.org Adattato per il modello da  Weerstation Leuven

Potete trovare le nostre info meteo anche a:

European Weather Network

Weather Underground

AWEKAS

HAMweather, WeatherForYou, PWS Weather

Strumentazione usata:

Stazione meteo
Oregon Scientific WMR88

Programma gestore dati meteo
WVIEW

Server per i dati meteo
WDS-5

Provider
Anemos WDS-5

Oregon Scientific WMR88

WVIEW

WDS-5

Anemos WDS-5